createdAt,value
2022-07-25T00:00:22.111Z,100913.90
2022-07-25T00:03:10.876Z,100906.02
2022-07-25T00:05:42.980Z,100905.89
2022-07-25T00:08:15.046Z,100909.41
2022-07-25T00:10:46.732Z,100902.50
2022-07-25T00:13:18.759Z,100898.09
2022-07-25T00:15:50.535Z,100898.27
2022-07-25T00:18:22.765Z,100898.87
2022-07-25T00:20:54.499Z,100895.13
2022-07-25T00:23:26.931Z,100898.21
2022-07-25T00:25:58.791Z,100895.04
2022-07-25T00:28:32.279Z,100897.92
2022-07-25T00:31:04.627Z,100896.46
2022-07-25T00:33:37.041Z,100887.52
2022-07-25T00:36:09.935Z,100879.51
2022-07-25T00:38:41.977Z,100876.17
2022-07-25T00:41:13.721Z,100873.61
2022-07-25T00:43:47.370Z,100868.59
2022-07-25T00:46:20.625Z,100862.89
2022-07-25T00:48:53.542Z,100859.25
2022-07-25T00:51:25.537Z,100860.63
2022-07-25T00:53:58.807Z,100860.73
2022-07-25T00:56:30.415Z,100864.34
2022-07-25T00:59:02.311Z,100868.77
2022-07-25T01:01:34.067Z,100874.97
2022-07-25T01:04:08.084Z,100880.88
2022-07-25T01:06:40.241Z,100878.09
2022-07-25T01:09:12.549Z,100881.88
2022-07-25T01:11:44.344Z,100882.29
2022-07-25T01:14:16.677Z,100884.59
2022-07-25T01:16:48.528Z,100883.89
2022-07-25T01:19:21.426Z,100881.33
2022-07-25T01:21:53.710Z,100876.40
2022-07-25T01:24:25.895Z,100878.01
2022-07-25T01:26:57.517Z,100872.60
2022-07-25T01:29:29.589Z,100872.52
2022-07-25T01:32:01.156Z,100872.38
2022-07-25T01:34:33.118Z,100871.79
2022-07-25T01:37:04.751Z,100869.92
2022-07-25T01:39:36.743Z,100866.71
2022-07-25T01:42:09.386Z,100865.36
2022-07-25T01:44:41.900Z,100861.71
2022-07-25T01:47:13.484Z,100862.96
2022-07-25T01:49:46.170Z,100861.38
2022-07-25T01:52:17.987Z,100859.49
2022-07-25T01:54:50.121Z,100860.22
2022-07-25T01:57:21.946Z,100861.02
2022-07-25T01:59:57.318Z,100862.48
2022-07-25T02:02:29.527Z,100862.00
2022-07-25T02:05:02.033Z,100863.90
2022-07-25T02:07:33.936Z,100864.99
2022-07-25T02:10:07.232Z,100865.69
2022-07-25T02:12:38.855Z,100869.05
2022-07-25T02:15:12.715Z,100869.73
2022-07-25T02:17:43.922Z,100866.97
2022-07-25T02:20:16.478Z,100866.89
2022-07-25T02:22:48.246Z,100863.39
2022-07-25T02:25:20.497Z,100861.48
2022-07-25T02:27:52.146Z,100859.27
2022-07-25T02:30:23.997Z,100861.02
2022-07-25T02:32:55.852Z,100865.44
2022-07-25T02:35:28.127Z,100863.88
2022-07-25T02:37:59.726Z,100865.13
2022-07-25T02:40:32.024Z,100862.29
2022-07-25T02:43:03.661Z,100864.23
2022-07-25T02:45:35.602Z,100867.63
2022-07-25T02:48:08.332Z,100867.47
2022-07-25T02:50:41.085Z,100866.70
2022-07-25T02:53:12.692Z,100869.06
2022-07-25T02:55:44.750Z,100863.92
2022-07-25T02:58:16.701Z,100866.89
2022-07-25T03:00:49.489Z,100870.98
2022-07-25T03:03:21.221Z,100874.36
2022-07-25T03:05:53.132Z,100877.71
2022-07-25T03:08:25.951Z,100877.05
2022-07-25T03:11:01.247Z,100879.98
2022-07-25T03:13:34.423Z,100878.27
2022-07-25T03:16:06.749Z,100877.81
2022-07-25T03:18:38.520Z,100877.20
2022-07-25T03:21:10.966Z,100871.85
2022-07-25T03:23:42.725Z,100873.07
2022-07-25T03:26:14.770Z,100870.05
2022-07-25T03:28:46.430Z,100873.83
2022-07-25T03:31:18.780Z,100868.01
2022-07-25T03:33:50.549Z,100866.52
2022-07-25T03:36:22.540Z,100868.48
2022-07-25T03:38:56.039Z,100865.09
2022-07-25T03:41:28.093Z,100862.86
2022-07-25T03:44:00.173Z,100865.06
2022-07-25T03:46:32.090Z,100871.31
2022-07-25T03:49:03.829Z,100872.07
2022-07-25T03:51:35.864Z,100877.36
2022-07-25T03:54:09.690Z,100875.88
2022-07-25T03:56:44.245Z,100875.32
2022-07-25T03:59:17.681Z,100872.23
2022-07-25T04:01:51.134Z,100870.45
2022-07-25T04:04:22.834Z,100871.55
2022-07-25T04:06:54.784Z,100866.71
2022-07-25T04:09:26.360Z,100869.38
2022-07-25T04:12:04.594Z,100867.45
2022-07-25T04:14:36.310Z,100871.67
2022-07-25T04:17:08.243Z,100869.05
2022-07-25T04:19:41.522Z,100865.61
2022-07-25T04:22:13.649Z,100869.38
2022-07-25T04:24:45.325Z,100865.13
2022-07-25T04:27:17.096Z,100862.74
2022-07-25T04:29:48.757Z,100862.48
2022-07-25T04:32:23.531Z,100862.46
2022-07-25T04:34:55.609Z,100863.42
2022-07-25T04:37:27.803Z,100859.58
2022-07-25T04:39:59.437Z,100860.43
2022-07-25T04:42:31.640Z,100859.53
2022-07-25T04:45:04.837Z,100860.86
2022-07-25T04:47:37.154Z,100861.23
2022-07-25T04:50:10.282Z,100860.36
2022-07-25T04:52:42.562Z,100863.27
2022-07-25T04:55:14.286Z,100860.10
2022-07-25T04:57:47.534Z,100861.59
2022-07-25T05:00:19.716Z,100863.55
2022-07-25T05:02:58.784Z,100863.40
2022-07-25T05:05:30.557Z,100857.92
2022-07-25T05:08:02.754Z,100861.12
2022-07-25T05:10:34.495Z,100859.76
2022-07-25T05:13:06.660Z,100855.29
2022-07-25T05:15:38.486Z,100854.70
2022-07-25T05:18:10.587Z,100852.29
2022-07-25T05:20:42.374Z,100855.48
2022-07-25T05:23:14.346Z,100851.38
2022-07-25T05:25:46.297Z,100848.81
2022-07-25T05:28:18.198Z,100849.27
2022-07-25T05:30:49.768Z,100840.31
2022-07-25T05:33:21.749Z,100838.31
2022-07-25T05:35:54.057Z,100836.10
2022-07-25T05:38:26.073Z,100836.77
2022-07-25T05:40:57.692Z,100836.71
2022-07-25T05:43:29.709Z,100834.73
2022-07-25T05:46:04.256Z,100834.84
2022-07-25T05:48:36.186Z,100835.70
2022-07-25T05:51:08.099Z,100832.45
2022-07-25T05:53:40.112Z,100833.73
2022-07-25T05:56:12.609Z,100832.10
2022-07-25T05:58:44.434Z,100828.80
2022-07-25T06:01:18.254Z,100825.05
2022-07-25T06:03:48.472Z,100825.38
2022-07-25T06:06:20.164Z,100830.54
2022-07-25T06:08:52.168Z,100831.10
2022-07-25T06:11:27.070Z,100829.14
2022-07-25T06:14:03.021Z,100824.77
2022-07-25T06:16:35.336Z,100823.81
2022-07-25T06:19:07.259Z,100821.55
2022-07-25T06:21:38.984Z,100821.49
2022-07-25T06:24:11.335Z,100823.11
2022-07-25T06:26:43.365Z,100822.13
2022-07-25T06:29:15.209Z,100818.78
2022-07-25T06:31:47.421Z,100817.31
2022-07-25T06:34:19.551Z,100812.19
2022-07-25T06:36:54.769Z,100812.01
2022-07-25T06:39:28.283Z,100807.98
2022-07-25T06:42:01.093Z,100807.39
2022-07-25T06:44:35.616Z,100806.21
2022-07-25T06:47:13.187Z,100799.02
2022-07-25T06:49:47.779Z,100791.89
2022-07-25T06:52:19.542Z,100790.45
2022-07-25T06:54:51.553Z,100792.26
2022-07-25T06:57:23.774Z,100785.05
2022-07-25T06:59:55.861Z,100779.64
2022-07-25T07:02:27.592Z,100782.09
2022-07-25T07:05:01.205Z,100781.88
2022-07-25T07:07:33.055Z,100783.63
2022-07-25T07:10:06.511Z,100784.50
2022-07-25T07:12:38.134Z,100779.02
2022-07-25T07:15:12.686Z,100779.98
2022-07-25T07:17:48.730Z,100776.63
2022-07-25T07:20:21.550Z,100776.91
2022-07-25T07:22:53.313Z,100773.43
2022-07-25T07:25:28.370Z,100776.20
2022-07-25T07:28:01.993Z,100779.99
2022-07-25T07:31:05.916Z,100779.95
2022-07-25T07:33:27.909Z,100778.14
2022-07-25T07:36:02.052Z,100777.80
2022-07-25T07:38:34.721Z,100770.42
2022-07-25T07:41:08.224Z,100764.36
2022-07-25T07:43:39.986Z,100765.43
2022-07-25T07:46:12.313Z,100755.27
2022-07-25T07:48:44.150Z,100755.67
2022-07-25T07:51:16.199Z,100761.48
2022-07-25T07:54:05.339Z,100762.78
2022-07-25T07:56:44.605Z,100756.91
2022-07-25T07:59:17.459Z,100751.08
2022-07-25T08:01:49.507Z,100750.91
2022-07-25T08:04:21.236Z,100755.38
2022-07-25T08:06:53.236Z,100756.27
2022-07-25T08:09:25.979Z,100761.74
2022-07-25T08:11:57.907Z,100751.56
2022-07-25T08:14:29.666Z,100745.23
2022-07-25T08:17:02.091Z,100745.91
2022-07-25T08:19:37.269Z,100735.45
2022-07-25T08:22:12.974Z,100733.61
2022-07-25T08:24:45.004Z,100732.44
2022-07-25T08:27:17.572Z,100735.94
2022-07-25T08:29:49.951Z,100732.56
2022-07-25T08:32:22.081Z,100735.55
2022-07-25T08:34:54.616Z,100732.66
2022-07-25T08:37:26.861Z,100730.59
2022-07-25T08:40:04.212Z,100733.25
2022-07-25T08:42:37.693Z,100732.16
2022-07-25T08:45:13.300Z,100731.67
2022-07-25T08:47:45.452Z,100726.73
2022-07-25T08:50:19.070Z,100725.27
2022-07-25T08:53:04.569Z,100719.27
2022-07-25T08:55:43.679Z,100721.41
2022-07-25T08:58:17.435Z,100718.91
2022-07-25T09:00:47.944Z,100719.98
2022-07-25T09:03:19.811Z,100719.40
2022-07-25T09:05:52.632Z,100715.21
2022-07-25T09:08:24.620Z,100710.31
2022-07-25T09:10:56.922Z,100707.66
2022-07-25T09:13:30.801Z,100708.26
2022-07-25T09:16:05.732Z,100708.81
2022-07-25T09:18:40.391Z,100710.41
2022-07-25T09:21:16.122Z,100705.91
2022-07-25T09:23:48.266Z,100703.79
2022-07-25T09:26:20.857Z,100704.33
2022-07-25T09:28:55.757Z,100701.96
2022-07-25T09:31:35.670Z,100699.30
2022-07-25T09:34:10.222Z,100695.98
2022-07-25T09:36:51.770Z,100687.48
2022-07-25T09:39:33.664Z,100684.59
2022-07-25T09:42:06.398Z,100683.89
2022-07-25T09:44:38.294Z,100683.28
2022-07-25T09:47:16.574Z,100683.83
2022-07-25T09:49:49.824Z,100686.39
2022-07-25T09:52:21.914Z,100690.20
2022-07-25T09:54:55.586Z,100679.95
2022-07-25T09:57:27.572Z,100678.70
2022-07-25T10:00:02.154Z,100674.77
2022-07-25T10:02:47.184Z,100673.33
2022-07-25T10:05:30.046Z,100671.50
2022-07-25T10:08:06.556Z,100679.52
2022-07-25T10:10:42.796Z,100675.23
2022-07-25T10:13:17.999Z,100675.30
2022-07-25T10:15:52.045Z,100667.30
2022-07-25T10:18:26.319Z,100671.13
2022-07-25T10:21:24.394Z,100666.70
2022-07-25T10:24:08.128Z,100669.73
2022-07-25T10:26:41.535Z,100668.64
2022-07-25T10:29:14.907Z,100658.44
2022-07-25T10:31:51.489Z,100662.73
2022-07-25T10:34:33.204Z,100652.86
2022-07-25T10:37:13.599Z,100651.21
2022-07-25T10:39:46.951Z,100648.40
2022-07-25T10:42:22.349Z,100640.90
2022-07-25T10:44:57.663Z,100636.67
2022-07-25T10:47:30.955Z,100633.52
2022-07-25T10:50:22.058Z,100627.79
2022-07-25T10:53:00.909Z,100623.71
2022-07-25T10:55:33.116Z,100618.96
2022-07-25T10:58:22.170Z,100616.19
2022-07-25T11:00:54.134Z,100614.68
2022-07-25T11:03:27.288Z,100613.48
2022-07-25T11:05:59.124Z,100612.41
2022-07-25T11:08:37.541Z,100604.73
2022-07-25T11:11:09.813Z,100603.73
2022-07-25T11:13:43.761Z,100600.42
2022-07-25T11:16:15.520Z,100602.40
2022-07-25T11:18:50.244Z,100602.06
2022-07-25T11:21:22.239Z,100601.80
2022-07-25T11:23:55.085Z,100601.66
2022-07-25T11:26:27.281Z,100597.69
2022-07-25T11:28:59.314Z,100598.23
2022-07-25T11:31:31.481Z,100594.74
2022-07-25T11:34:03.760Z,100594.21
2022-07-25T11:36:35.845Z,100589.86
2022-07-25T11:39:09.088Z,100590.94
2022-07-25T11:41:55.559Z,100593.05
2022-07-25T11:44:35.617Z,100588.44
2022-07-25T11:47:15.738Z,100583.58
2022-07-25T11:49:50.566Z,100579.15
2022-07-25T11:52:30.305Z,100575.70
2022-07-25T11:55:04.867Z,100574.20
2022-07-25T11:57:41.769Z,100569.25
2022-07-25T12:00:21.207Z,100564.91
2022-07-25T12:02:53.441Z,100561.23
2022-07-25T12:05:34.840Z,100558.13
2022-07-25T12:08:13.186Z,100553.24
2022-07-25T12:10:47.883Z,100555.16
2022-07-25T12:13:27.234Z,100558.09
2022-07-25T12:16:01.328Z,100558.35
2022-07-25T12:18:33.025Z,100554.97
2022-07-25T12:21:05.308Z,100555.29
2022-07-25T12:23:38.316Z,100551.56
2022-07-25T12:26:13.730Z,100549.80
2022-07-25T12:28:46.093Z,100542.98
2022-07-25T12:31:18.399Z,100541.21
2022-07-25T12:33:50.336Z,100530.16
2022-07-25T12:36:22.496Z,100523.89
2022-07-25T12:38:54.321Z,100522.12
2022-07-25T12:41:26.556Z,100526.04
2022-07-25T12:43:59.177Z,100518.95
2022-07-25T12:46:31.243Z,100517.76
2022-07-25T12:49:03.270Z,100513.02
2022-07-25T12:51:35.419Z,100511.09
2022-07-25T12:54:07.872Z,100509.63
2022-07-25T12:56:40.129Z,100511.84
2022-07-25T12:59:12.215Z,100512.94
2022-07-25T13:01:44.219Z,100506.88
2022-07-25T13:04:16.378Z,100501.67
2022-07-25T13:06:48.364Z,100496.60
2022-07-25T13:09:22.296Z,100491.17
2022-07-25T13:11:55.089Z,100484.64
2022-07-25T13:14:27.121Z,100480.19
2022-07-25T13:16:59.144Z,100481.23
2022-07-25T13:19:31.077Z,100480.91
2022-07-25T13:22:02.907Z,100478.04
2022-07-25T13:24:35.305Z,100476.11
2022-07-25T13:27:07.654Z,100468.61
2022-07-25T13:29:39.543Z,100468.71
2022-07-25T13:32:11.522Z,100458.20
2022-07-25T13:34:43.722Z,100459.52
2022-07-25T13:37:15.917Z,100454.90
2022-07-25T13:39:47.834Z,100454.88
2022-07-25T13:42:20.143Z,100451.59
2022-07-25T13:44:52.987Z,100446.96
2022-07-25T13:47:29.984Z,100444.79
2022-07-25T13:50:03.199Z,100442.11
2022-07-25T13:52:38.327Z,100440.95
2022-07-25T13:55:12.185Z,100437.91
2022-07-25T13:57:45.520Z,100438.42
2022-07-25T14:00:18.866Z,100432.66
2022-07-25T14:02:52.377Z,100429.87
2022-07-25T14:05:24.413Z,100426.09
2022-07-25T14:07:56.551Z,100421.52
2022-07-25T14:10:29.286Z,100420.41
2022-07-25T14:12:59.982Z,100424.13
2022-07-25T14:15:32.056Z,100416.70
2022-07-25T14:18:04.079Z,100415.45
2022-07-25T14:20:36.088Z,100410.08
2022-07-25T14:23:08.114Z,100410.57
2022-07-25T14:25:45.114Z,100411.64
2022-07-25T14:28:18.333Z,100416.48
2022-07-25T14:30:51.148Z,100414.46
2022-07-25T14:33:24.368Z,100413.32
2022-07-25T14:35:57.812Z,100405.66
2022-07-25T14:38:31.214Z,100399.84
2022-07-25T14:41:12.336Z,100396.81
2022-07-25T14:43:45.348Z,100393.57
2022-07-25T14:46:17.589Z,100390.18
2022-07-25T14:48:50.008Z,100382.56
2022-07-25T14:51:22.406Z,100376.54
2022-07-25T14:53:54.931Z,100374.49
2022-07-25T14:56:26.786Z,100377.38
2022-07-25T14:58:58.980Z,100369.58
2022-07-25T15:01:31.503Z,100363.80
2022-07-25T15:04:03.905Z,100363.08
2022-07-25T15:06:36.042Z,100359.09
2022-07-25T15:09:07.647Z,100357.41
2022-07-25T15:11:39.729Z,100354.30
2022-07-25T15:14:11.699Z,100347.19
2022-07-25T15:16:43.876Z,100346.73
2022-07-25T15:19:17.036Z,100342.86
2022-07-25T15:21:49.308Z,100338.13
2022-07-25T15:24:23.576Z,100337.73
2022-07-25T15:27:01.548Z,100330.87
2022-07-25T15:29:33.192Z,100330.73
2022-07-25T15:32:06.417Z,100328.05
2022-07-25T15:34:38.421Z,100324.17
2022-07-25T15:37:12.072Z,100325.03
2022-07-25T15:39:45.220Z,100326.40
2022-07-25T15:42:17.286Z,100324.39
2022-07-25T15:44:59.587Z,100322.40
2022-07-25T15:47:41.688Z,100318.81
2022-07-25T15:50:13.742Z,100315.63
2022-07-25T15:52:45.670Z,100314.66
2022-07-25T15:55:17.606Z,100316.64
2022-07-25T15:57:49.707Z,100313.42
2022-07-25T16:00:29.142Z,100313.34
2022-07-25T16:03:02.167Z,100308.19
2022-07-25T16:05:34.505Z,100310.20
2022-07-25T16:08:08.396Z,100305.98
2022-07-25T16:10:41.019Z,100307.11
2022-07-25T16:13:12.987Z,100305.61
2022-07-25T16:15:44.836Z,100302.23
2022-07-25T16:18:16.608Z,100299.92
2022-07-25T16:20:48.287Z,100299.06
2022-07-25T16:23:20.013Z,100296.05
2022-07-25T16:25:52.734Z,100296.06
2022-07-25T16:28:23.977Z,100297.25
2022-07-25T16:30:56.285Z,100291.87
2022-07-25T16:33:28.024Z,100285.77
2022-07-25T16:36:02.317Z,100283.52
2022-07-25T16:38:34.183Z,100285.08
2022-07-25T16:41:10.097Z,100284.83
2022-07-25T16:43:42.650Z,100281.15
2022-07-25T16:46:16.733Z,100276.96
2022-07-25T16:48:49.318Z,100275.35
2022-07-25T16:51:22.090Z,100276.75
2022-07-25T16:53:54.188Z,100274.64
2022-07-25T16:56:26.319Z,100278.09
2022-07-25T16:58:58.079Z,100275.67
2022-07-25T17:01:30.070Z,100279.23
2022-07-25T17:04:02.731Z,100273.60
2022-07-25T17:06:35.199Z,100269.43
2022-07-25T17:09:08.407Z,100264.33
2022-07-25T17:11:41.108Z,100263.95
2022-07-25T17:14:13.390Z,100262.08
2022-07-25T17:16:45.536Z,100258.27
2022-07-25T17:19:17.528Z,100253.36
2022-07-25T17:21:49.696Z,100251.98
2022-07-25T17:24:21.720Z,100242.55
2022-07-25T17:26:53.714Z,100240.65
2022-07-25T17:29:25.446Z,100239.89
2022-07-25T17:31:57.267Z,100239.70
2022-07-25T17:34:29.257Z,100231.09
2022-07-25T17:37:03.194Z,100228.79
2022-07-25T17:39:35.651Z,100225.77
2022-07-25T17:42:08.351Z,100220.86
2022-07-25T17:44:40.365Z,100219.73
2022-07-25T17:47:14.463Z,100215.64
2022-07-25T17:49:46.333Z,100216.56
2022-07-25T17:52:18.321Z,100213.86
2022-07-25T17:54:50.514Z,100213.14
2022-07-25T17:57:22.522Z,100210.16
2022-07-25T17:59:54.437Z,100214.86
2022-07-25T18:02:26.705Z,100211.43
2022-07-25T18:04:58.459Z,100213.18
2022-07-25T18:07:31.047Z,100207.85
2022-07-25T18:10:03.880Z,100210.13
2022-07-25T18:12:36.043Z,100208.99
2022-07-25T18:15:09.594Z,100214.66
2022-07-25T18:17:44.267Z,100209.85
2022-07-25T18:20:17.525Z,100208.48
2022-07-25T18:22:48.085Z,100206.80
2022-07-25T18:25:19.861Z,100201.77
2022-07-25T18:27:51.966Z,100205.23
2022-07-25T18:30:28.741Z,100205.56
2022-07-25T18:33:01.347Z,100200.42
2022-07-25T18:35:33.120Z,100198.27
2022-07-25T18:38:05.136Z,100195.27
2022-07-25T18:40:36.845Z,100195.30
2022-07-25T18:43:09.220Z,100192.45
2022-07-25T18:45:43.367Z,100189.99
2022-07-25T18:48:17.442Z,100194.21
2022-07-25T18:50:49.529Z,100195.00
2022-07-25T18:53:21.954Z,100193.43
2022-07-25T18:55:53.742Z,100192.70
2022-07-25T18:58:25.624Z,100194.53
2022-07-25T19:00:57.406Z,100191.69
2022-07-25T19:03:29.247Z,100188.45
2022-07-25T19:06:03.384Z,100187.75
2022-07-25T19:08:35.627Z,100182.65
2022-07-25T19:11:08.617Z,100180.27
2022-07-25T19:13:50.369Z,100176.98
2022-07-25T19:16:23.192Z,100172.73
2022-07-25T19:18:55.454Z,100173.33
2022-07-25T19:21:27.487Z,100168.38
2022-07-25T19:23:59.522Z,100170.30
2022-07-25T19:26:31.739Z,100167.32
2022-07-25T19:29:03.736Z,100161.31
2022-07-25T19:31:37.524Z,100162.80
2022-07-25T19:34:10.620Z,100161.94
2022-07-25T19:36:46.091Z,100157.55
2022-07-25T19:39:18.867Z,100157.31
2022-07-25T19:41:54.204Z,100153.89
2022-07-25T19:44:26.419Z,100157.80
2022-07-25T19:46:59.050Z,100155.84
2022-07-25T19:49:30.835Z,100154.52
2022-07-25T19:52:03.036Z,100153.73
2022-07-25T19:54:35.218Z,100149.94
2022-07-25T19:57:07.362Z,100149.77
2022-07-25T19:59:39.611Z,100152.44
2022-07-25T20:02:11.537Z,100152.94
2022-07-25T20:04:43.671Z,100156.62
2022-07-25T20:07:15.414Z,100156.11
2022-07-25T20:09:47.338Z,100156.91
2022-07-25T20:12:19.294Z,100158.38
2022-07-25T20:14:51.120Z,100154.68
2022-07-25T20:17:23.566Z,100155.68
2022-07-25T20:19:55.551Z,100152.42
2022-07-25T20:22:27.432Z,100152.33
2022-07-25T20:24:59.397Z,100150.55
2022-07-25T20:27:31.328Z,100148.66
2022-07-25T20:30:04.371Z,100149.52
2022-07-25T20:32:36.602Z,100149.55
2022-07-25T20:35:09.806Z,100148.14
2022-07-25T20:37:42.027Z,100155.41
2022-07-25T20:40:16.287Z,100152.63
2022-07-25T20:42:48.728Z,100151.67
2022-07-25T20:45:20.866Z,100152.67
2022-07-25T20:47:52.976Z,100151.17
2022-07-25T20:50:25.046Z,100151.92
2022-07-25T20:52:57.010Z,100151.34
2022-07-25T20:55:31.506Z,100153.05
2022-07-25T20:58:04.492Z,100155.66
2022-07-25T21:00:36.791Z,100149.80
2022-07-25T21:03:09.038Z,100152.77
2022-07-25T21:05:43.373Z,100153.05
2022-07-25T21:08:15.541Z,100157.65
2022-07-25T21:10:47.586Z,100163.47
2022-07-25T21:13:19.528Z,100166.54
2022-07-25T21:15:52.180Z,100167.46
2022-07-25T21:18:24.052Z,100169.56
2022-07-25T21:20:57.516Z,100172.19
2022-07-25T21:23:29.341Z,100174.11
2022-07-25T21:26:02.122Z,100170.52
2022-07-25T21:28:35.764Z,100173.14
2022-07-25T21:31:08.122Z,100173.95
2022-07-25T21:33:40.167Z,100172.03
2022-07-25T21:36:13.422Z,100174.27
2022-07-25T21:38:45.127Z,100175.96
2022-07-25T21:41:18.531Z,100182.27
2022-07-25T21:43:50.991Z,100180.34
2022-07-25T21:46:23.192Z,100180.16
2022-07-25T21:49:13.397Z,100179.66
2022-07-25T21:51:46.084Z,100185.30
2022-07-25T21:54:17.991Z,100187.75
2022-07-25T21:56:50.123Z,100184.89
2022-07-25T21:59:22.084Z,100186.96
2022-07-25T22:01:54.033Z,100188.27
2022-07-25T22:04:26.457Z,100187.00
2022-07-25T22:06:58.683Z,100186.23
2022-07-25T22:09:30.439Z,100183.65
2022-07-25T22:12:02.400Z,100175.63
2022-07-25T22:14:34.527Z,100168.02
2022-07-25T22:17:06.920Z,100164.88
2022-07-25T22:19:38.935Z,100165.48
2022-07-25T22:22:10.790Z,100166.35
2022-07-25T22:24:46.469Z,100166.02
2022-07-25T22:27:18.976Z,100158.80
2022-07-25T22:29:50.572Z,100155.98
2022-07-25T22:32:22.638Z,100153.29
2022-07-25T22:34:54.387Z,100141.83
2022-07-25T22:37:26.489Z,100140.69
2022-07-25T22:40:01.426Z,100138.36
2022-07-25T22:42:33.709Z,100138.08
2022-07-25T22:45:06.277Z,100136.63
2022-07-25T22:47:38.144Z,100140.73
2022-07-25T22:50:12.046Z,100134.58
2022-07-25T22:52:44.083Z,100125.16
2022-07-25T22:55:15.969Z,100116.38
2022-07-25T22:57:49.868Z,100113.17
2022-07-25T23:00:20.381Z,100114.15
2022-07-25T23:02:52.398Z,100114.30
2022-07-25T23:05:24.955Z,100116.12
2022-07-25T23:07:56.924Z,100116.86
2022-07-25T23:10:28.893Z,100115.40
2022-07-25T23:13:00.703Z,100109.14
2022-07-25T23:15:50.189Z,100106.02
2022-07-25T23:18:23.223Z,100102.59
2022-07-25T23:20:55.266Z,100093.59
2022-07-25T23:23:26.994Z,100091.47
2022-07-25T23:25:58.700Z,100091.05
2022-07-25T23:28:30.576Z,100091.55
2022-07-25T23:31:02.326Z,100093.80
2022-07-25T23:33:34.198Z,100088.68
2022-07-25T23:36:06.611Z,100084.16
2022-07-25T23:38:39.431Z,100082.23
2022-07-25T23:41:11.156Z,100080.59
2022-07-25T23:43:56.595Z,100072.79
2022-07-25T23:46:30.965Z,100068.11
2022-07-25T23:49:03.266Z,100058.15
2022-07-25T23:51:35.552Z,100055.91
2022-07-25T23:54:07.957Z,100058.44
2022-07-25T23:56:40.185Z,100057.54
2022-07-25T23:59:12.078Z,100067.62
